createdAt,value
2019-04-22T00:01:06.933Z,8.90
2019-04-22T00:03:39.223Z,6.58
2019-04-22T00:06:25.668Z,7.10
2019-04-22T00:08:55.967Z,10.32
2019-04-22T00:11:29.111Z,9.93
2019-04-22T00:13:58.160Z,8.35
2019-04-22T00:16:32.054Z,7.53
2019-04-22T00:21:31.927Z,10.00
2019-04-22T00:23:59.874Z,6.85
2019-04-22T00:26:29.087Z,6.33
2019-04-22T00:29:20.823Z,6.65
2019-04-22T00:31:37.234Z,8.25
2019-04-22T00:34:06.144Z,5.45
2019-04-22T00:36:40.185Z,6.90
2019-04-22T00:39:17.955Z,5.35
2019-04-22T00:41:44.086Z,7.65
2019-04-22T00:44:15.633Z,9.08
2019-04-22T00:46:44.069Z,6.62
2019-04-22T00:49:53.018Z,8.23
2019-04-22T00:51:44.889Z,10.05
2019-04-22T00:54:08.657Z,8.43
2019-04-22T00:56:40.997Z,9.03
2019-04-22T00:59:11.471Z,6.55
2019-04-22T01:01:39.816Z,6.95
2019-04-22T01:04:12.477Z,8.78
2019-04-22T01:06:38.609Z,11.03
2019-04-22T01:09:14.688Z,8.28
2019-04-22T01:11:38.837Z,5.42
2019-04-22T01:14:06.454Z,9.45
2019-04-22T01:16:43.132Z,7.05
2019-04-22T01:19:12.298Z,11.85
2019-04-22T01:21:40.542Z,8.13
2019-04-22T01:24:09.170Z,6.75
2019-04-22T01:26:36.317Z,7.87
2019-04-22T01:29:02.453Z,10.13
2019-04-22T01:31:22.063Z,9.80
2019-04-22T01:34:03.058Z,5.70
2019-04-22T01:36:35.651Z,6.60
2019-04-22T01:39:13.802Z,9.38
2019-04-22T01:41:51.695Z,6.20
2019-04-22T01:46:45.054Z,6.40
2019-04-22T01:49:18.309Z,7.70
2019-04-22T01:54:25.101Z,7.00
2019-04-22T01:56:51.063Z,7.08
2019-04-22T01:59:06.274Z,7.22
2019-04-22T02:04:17.613Z,12.20
2019-04-22T02:06:48.530Z,5.92
2019-04-22T02:11:58.549Z,7.05
2019-04-22T02:14:25.329Z,8.78
2019-04-22T02:16:50.288Z,9.50
2019-04-22T02:19:25.449Z,8.28
2019-04-22T02:21:42.542Z,8.60
2019-04-22T02:24:20.116Z,9.88
2019-04-22T02:29:15.064Z,7.87
2019-04-22T02:31:48.978Z,10.45
2019-04-22T02:34:22.291Z,8.95
2019-04-22T02:36:51.365Z,11.93
2019-04-22T02:39:20.179Z,7.25
2019-04-22T02:41:54.774Z,10.55
2019-04-22T02:44:16.841Z,7.60
2019-04-22T02:49:25.317Z,10.78
2019-04-22T02:51:49.118Z,9.80
2019-04-22T02:56:45.469Z,10.40
2019-04-22T02:59:21.989Z,8.68
2019-04-22T03:01:47.791Z,10.30
2019-04-22T03:09:25.398Z,10.13
2019-04-22T03:14:22.784Z,9.28
2019-04-22T03:16:51.222Z,17.90
2019-04-22T03:19:34.085Z,13.22
2019-04-22T03:21:57.763Z,14.35
2019-04-22T03:26:59.245Z,13.28
2019-04-22T03:30:27.147Z,12.98
2019-04-22T03:33:03.054Z,12.10
2019-04-22T03:37:36.311Z,15.53
2019-04-22T03:40:04.619Z,15.80
2019-04-22T03:42:21.555Z,12.80
2019-04-22T03:45:10.288Z,12.25
2019-04-22T03:50:09.876Z,15.80
2019-04-22T03:52:20.765Z,12.88
2019-04-22T04:05:22.066Z,14.73
2019-04-22T04:12:28.818Z,13.98
2019-04-22T04:15:13.622Z,13.45
2019-04-22T04:17:37.445Z,14.13
2019-04-22T04:20:24.268Z,13.88
2019-04-22T04:25:22.083Z,13.43
2019-04-22T04:30:14.033Z,11.85
2019-04-22T04:37:46.819Z,17.17
2019-04-22T04:53:01.293Z,13.18
2019-04-22T04:55:10.333Z,16.32
2019-04-22T05:05:21.125Z,16.42
2019-04-22T05:07:40.441Z,21.00
2019-04-22T05:15:17.682Z,13.68
2019-04-22T05:20:13.369Z,16.27
2019-04-22T05:22:43.043Z,18.45
2019-04-22T05:25:15.085Z,14.78
2019-04-22T05:27:40.117Z,19.00
2019-04-22T05:32:38.512Z,21.42
2019-04-22T05:37:41.575Z,25.20
2019-04-22T05:40:19.273Z,13.48
2019-04-22T05:42:39.555Z,14.85
2019-04-22T05:47:46.450Z,14.50
2019-04-22T05:50:13.258Z,14.15
2019-04-22T05:52:49.882Z,16.87
2019-04-22T05:55:26.786Z,14.55
2019-04-22T05:57:51.089Z,17.48
2019-04-22T06:05:24.684Z,16.05
2019-04-22T06:07:55.414Z,15.85
2019-04-22T06:10:29.056Z,14.10
2019-04-22T06:12:55.379Z,15.25
2019-04-22T06:15:25.446Z,11.48
2019-04-22T06:18:07.716Z,15.20
2019-04-22T06:20:32.523Z,13.10
2019-04-22T06:23:04.104Z,19.62
2019-04-22T06:25:54.964Z,15.95
2019-04-22T06:30:41.760Z,14.35
2019-04-22T06:33:17.098Z,15.75
2019-04-22T06:35:45.709Z,18.20
2019-04-22T06:40:52.090Z,13.75
2019-04-22T06:43:16.302Z,19.05
2019-04-22T06:45:45.044Z,17.92
2019-04-22T06:48:19.136Z,18.92
2019-04-22T06:50:50.487Z,18.30
2019-04-22T06:53:17.493Z,21.68
2019-04-22T06:55:56.394Z,16.93
2019-04-22T06:58:21.531Z,20.50
2019-04-22T07:00:44.466Z,15.10
2019-04-22T07:05:52.464Z,16.90
2019-04-22T07:10:54.870Z,16.55
2019-04-22T07:13:27.374Z,17.55
2019-04-22T07:18:31.439Z,14.60
2019-04-22T07:21:04.213Z,14.68
2019-04-22T07:26:00.280Z,15.48
2019-04-22T07:28:27.436Z,18.75
2019-04-22T07:33:34.288Z,23.70
2019-04-22T07:36:25.439Z,16.87
2019-04-22T07:41:02.579Z,16.52
2019-04-22T07:43:51.699Z,16.60
2019-04-22T07:46:00.352Z,17.12
2019-04-22T07:48:43.434Z,21.07
2019-04-22T07:53:32.173Z,13.98
2019-04-22T07:56:06.800Z,12.98
2019-04-22T08:01:11.760Z,15.05
2019-04-22T08:03:47.714Z,13.95
2019-04-22T08:08:46.232Z,15.75
2019-04-22T08:11:21.574Z,18.57
2019-04-22T08:13:34.203Z,11.68
2019-04-22T08:16:02.643Z,20.80
2019-04-22T08:18:37.466Z,13.38
2019-04-22T08:21:04.502Z,14.20
2019-04-22T08:23:39.454Z,13.88
2019-04-22T08:26:00.906Z,16.55
2019-04-22T08:28:41.317Z,11.25
2019-04-22T08:31:10.553Z,11.83
2019-04-22T08:33:39.772Z,29.50
2019-04-22T08:38:43.658Z,14.45
2019-04-22T08:41:23.050Z,18.42
2019-04-22T08:43:52.389Z,11.33
2019-04-22T08:46:25.586Z,11.63
2019-04-22T08:48:43.960Z,12.37
2019-04-22T08:51:16.846Z,15.00
2019-04-22T08:53:49.970Z,14.68
2019-04-22T08:56:29.868Z,17.37
2019-04-22T08:58:50.794Z,12.90
2019-04-22T09:01:17.773Z,15.63
2019-04-22T09:03:46.909Z,19.45
2019-04-22T09:06:22.440Z,16.02
2019-04-22T09:08:50.097Z,12.07
2019-04-22T09:11:22.948Z,13.95
2019-04-22T09:13:52.102Z,15.70
2019-04-22T09:16:19.407Z,10.98
2019-04-22T09:18:50.572Z,12.82
2019-04-22T09:23:53.965Z,14.98
2019-04-22T09:26:27.026Z,10.48
2019-04-22T09:28:54.857Z,12.45
2019-04-22T09:31:19.871Z,11.97
2019-04-22T09:34:01.199Z,11.57
2019-04-22T09:36:24.348Z,19.23
2019-04-22T09:38:48.655Z,10.20
2019-04-22T09:41:18.827Z,12.98
2019-04-22T09:43:52.139Z,15.28
2019-04-22T09:46:23.045Z,16.42
2019-04-22T09:48:56.420Z,16.45
2019-04-22T09:51:18.627Z,10.80
2019-04-22T09:56:28.046Z,17.27
2019-04-22T09:58:50.081Z,13.62
2019-04-22T10:01:32.421Z,16.57
2019-04-22T10:03:56.437Z,14.03
2019-04-22T10:06:27.880Z,17.12
2019-04-22T10:10:01.456Z,15.30
2019-04-22T10:11:26.830Z,18.12
2019-04-22T10:13:54.255Z,11.03
2019-04-22T10:16:29.226Z,15.75
2019-04-22T10:18:52.954Z,18.67
2019-04-22T10:21:37.191Z,12.55
2019-04-22T10:23:55.958Z,15.68
2019-04-22T10:26:30.064Z,18.35
2019-04-22T10:31:23.978Z,13.48
2019-04-22T10:33:45.246Z,14.07
2019-04-22T10:35:59.342Z,12.00
2019-04-22T10:38:28.395Z,16.02
2019-04-22T10:40:58.549Z,17.87
2019-04-22T10:43:27.549Z,15.48
2019-04-22T10:45:56.107Z,11.03
2019-04-22T10:48:26.077Z,15.63
2019-04-22T10:50:54.874Z,14.93
2019-04-22T10:53:23.851Z,20.62
2019-04-22T10:55:52.443Z,14.23
2019-04-22T10:58:21.460Z,17.57
2019-04-22T11:00:52.250Z,11.63
2019-04-22T11:03:22.482Z,11.65
2019-04-22T11:05:53.889Z,10.00
2019-04-22T11:08:31.967Z,13.72
2019-04-22T11:11:08.305Z,12.85
2019-04-22T11:13:22.210Z,14.10
2019-04-22T11:18:19.884Z,24.60
2019-04-22T11:20:49.553Z,17.37
2019-04-22T11:23:18.620Z,21.80
2019-04-22T11:25:48.020Z,13.48
2019-04-22T11:28:17.818Z,14.28
2019-04-22T11:30:48.123Z,12.28
2019-04-22T11:33:16.646Z,13.53
2019-04-22T11:35:45.911Z,17.10
2019-04-22T11:38:15.061Z,12.93
2019-04-22T11:40:47.956Z,11.45
2019-04-22T11:43:14.542Z,12.82
2019-04-22T11:48:11.274Z,14.60
2019-04-22T11:50:40.085Z,14.30
2019-04-22T11:53:08.950Z,12.70
2019-04-22T11:55:37.564Z,12.98
2019-04-22T11:58:06.627Z,12.90
2019-04-22T12:00:37.004Z,13.48
2019-04-22T12:03:07.111Z,14.50
2019-04-22T12:05:35.857Z,13.15
2019-04-22T12:08:05.022Z,16.85
2019-04-22T12:10:42.642Z,14.40
2019-04-22T12:13:06.238Z,14.00
2019-04-22T12:15:35.215Z,14.05
2019-04-22T12:18:03.879Z,12.93
2019-04-22T12:20:33.016Z,10.00
2019-04-22T12:25:41.401Z,17.15
2019-04-22T12:28:01.021Z,11.78
2019-04-22T12:30:29.879Z,16.23
2019-04-22T12:32:58.369Z,13.50
2019-04-22T12:35:28.293Z,14.70
2019-04-22T12:38:01.504Z,16.05
2019-04-22T12:40:39.506Z,13.65
2019-04-22T12:42:57.734Z,13.38
2019-04-22T12:45:26.662Z,12.28
2019-04-22T12:47:55.950Z,12.03
2019-04-22T12:50:31.006Z,12.28
2019-04-22T12:53:02.473Z,15.80
2019-04-22T12:55:26.129Z,14.25
2019-04-22T12:57:57.422Z,14.87
2019-04-22T13:00:24.794Z,10.82
2019-04-22T13:02:54.665Z,16.02
2019-04-22T13:05:23.256Z,10.90
2019-04-22T13:07:51.857Z,15.48
2019-04-22T13:10:21.849Z,12.05
2019-04-22T13:12:50.968Z,11.12
2019-04-22T13:15:20.089Z,10.23
2019-04-22T13:18:02.384Z,11.88
2019-04-22T13:20:20.290Z,10.20
2019-04-22T13:22:48.897Z,10.15
2019-04-22T13:25:17.701Z,10.00
2019-04-22T13:27:46.834Z,10.13
2019-04-22T13:30:16.571Z,13.25
2019-04-22T13:32:45.131Z,13.38
2019-04-22T13:35:18.478Z,13.55
2019-04-22T13:37:46.692Z,10.75
2019-04-22T13:40:15.344Z,12.23
2019-04-22T13:42:44.875Z,12.07
2019-04-22T13:45:15.753Z,12.05
2019-04-22T13:48:06.292Z,10.72
2019-04-22T13:57:58.297Z,12.93
2019-04-22T14:00:20.819Z,15.98
2019-04-22T14:02:56.611Z,11.28
2019-04-22T14:05:26.881Z,12.13
2019-04-22T14:07:57.585Z,11.50
2019-04-22T14:10:26.946Z,12.33
2019-04-22T14:12:55.424Z,14.33
2019-04-22T14:15:24.337Z,13.32
2019-04-22T14:17:52.916Z,15.53
2019-04-22T14:20:24.060Z,12.43
2019-04-22T14:22:52.751Z,18.10
2019-04-22T14:25:22.823Z,11.08
2019-04-22T14:28:00.247Z,13.45
2019-04-22T14:30:21.799Z,16.55
2019-04-22T14:32:51.216Z,12.40
2019-04-22T14:35:20.870Z,12.82
2019-04-22T14:37:50.262Z,13.28
2019-04-22T14:40:20.271Z,17.57
2019-04-22T14:44:15.607Z,19.62
2019-04-22T14:45:50.243Z,14.18
2019-04-22T14:48:15.426Z,11.97
2019-04-22T14:50:42.264Z,13.85
2019-04-22T14:53:07.832Z,14.83
2019-04-22T14:55:25.299Z,13.20
2019-04-22T14:57:50.958Z,15.93
2019-04-22T15:00:22.029Z,11.45
2019-04-22T15:02:51.885Z,19.15
2019-04-22T15:05:22.032Z,13.00
2019-04-22T15:07:50.745Z,11.15
2019-04-22T15:10:20.182Z,11.03
2019-04-22T15:12:51.685Z,11.08
2019-04-22T15:15:27.158Z,15.95
2019-04-22T15:18:00.970Z,12.15
2019-04-22T15:20:37.583Z,12.50
2019-04-22T15:23:06.708Z,18.90
2019-04-22T15:25:36.645Z,14.90
2019-04-22T15:28:05.774Z,15.55
2019-04-22T15:30:35.189Z,14.47
2019-04-22T15:33:03.812Z,20.23
2019-04-22T15:35:33.585Z,16.07
2019-04-22T15:38:04.504Z,14.15
2019-04-22T15:40:32.416Z,13.15
2019-04-22T15:43:02.559Z,17.40
2019-04-22T15:45:32.568Z,11.63
2019-04-22T15:48:02.071Z,11.75
2019-04-22T15:50:30.941Z,12.58
2019-04-22T15:53:02.522Z,14.33
2019-04-22T15:55:29.824Z,18.12
2019-04-22T15:57:59.407Z,13.90
2019-04-22T16:00:40.763Z,15.18
2019-04-22T16:02:59.636Z,14.98
2019-04-22T16:05:28.293Z,20.08
2019-04-22T16:07:57.034Z,22.10
2019-04-22T16:10:26.110Z,22.22
2019-04-22T16:13:05.519Z,18.27
2019-04-22T16:15:26.294Z,19.42
2019-04-22T16:17:55.074Z,17.37
2019-04-22T16:20:23.496Z,25.03
2019-04-22T16:23:09.539Z,18.67
2019-04-22T16:25:42.972Z,19.52
2019-04-22T16:28:13.012Z,13.83
2019-04-22T16:30:41.739Z,14.40
2019-04-22T16:33:10.269Z,15.35
2019-04-22T16:35:38.837Z,13.77
2019-04-22T16:38:08.604Z,13.65
2019-04-22T16:40:38.741Z,15.38
2019-04-22T16:43:09.534Z,13.00
2019-04-22T16:45:37.815Z,15.80
2019-04-22T16:48:07.492Z,12.13
2019-04-22T16:50:39.304Z,16.80
2019-04-22T16:53:06.355Z,18.70
2019-04-22T16:55:35.168Z,14.20
2019-04-22T16:58:05.166Z,14.80
2019-04-22T17:00:34.431Z,21.20
2019-04-22T17:03:20.818Z,17.45
2019-04-22T17:05:53.815Z,22.42
2019-04-22T17:08:24.543Z,17.10
2019-04-22T17:10:53.634Z,19.40
2019-04-22T17:13:25.385Z,11.65
2019-04-22T17:15:53.918Z,19.10
2019-04-22T17:18:23.238Z,14.43
2019-04-22T17:20:52.907Z,45.80
2019-04-22T17:23:21.544Z,15.28
2019-04-22T17:25:50.320Z,22.70
2019-04-22T17:28:19.329Z,14.15
2019-04-22T17:30:47.869Z,17.02
2019-04-22T17:33:16.913Z,17.30
2019-04-22T17:35:47.185Z,44.53
2019-04-22T17:38:26.242Z,31.12
2019-04-22T17:41:01.288Z,21.48
2019-04-22T17:43:52.588Z,20.40
2019-04-22T17:46:12.098Z,23.50
2019-04-22T17:49:06.046Z,27.42
2019-04-22T17:51:36.319Z,22.42
2019-04-22T17:54:11.015Z,23.70
2019-04-22T17:56:37.616Z,20.15
2019-04-22T17:59:10.544Z,25.60
2019-04-22T18:01:32.643Z,29.60
2019-04-22T18:03:52.891Z,36.30
2019-04-22T18:06:44.020Z,47.50
2019-04-22T18:09:04.995Z,29.82
2019-04-22T18:11:48.279Z,36.13
2019-04-22T18:14:25.709Z,48.42
2019-04-22T18:16:37.070Z,33.98
2019-04-22T18:19:10.086Z,49.53
2019-04-22T18:21:35.130Z,42.33
2019-04-22T18:24:01.342Z,43.58
2019-04-22T18:26:45.881Z,42.67
2019-04-22T18:29:12.915Z,44.05
2019-04-22T18:31:32.987Z,37.25
2019-04-22T18:34:06.893Z,32.95
2019-04-22T18:36:37.239Z,34.75
2019-04-22T18:39:18.570Z,38.23
2019-04-22T18:41:40.680Z,42.53
2019-04-22T18:44:19.958Z,39.70
2019-04-22T18:46:40.671Z,37.20
2019-04-22T18:49:12.373Z,43.75
2019-04-22T18:51:55.990Z,40.80
2019-04-22T18:54:36.428Z,32.28
2019-04-22T18:57:08.350Z,44.13
2019-04-22T18:59:26.265Z,30.70
2019-04-22T19:01:52.347Z,33.80
2019-04-22T19:04:27.559Z,48.58
2019-04-22T19:07:17.220Z,43.20
2019-04-22T19:09:53.274Z,38.45
2019-04-22T19:12:22.256Z,48.58
2019-04-22T19:14:50.014Z,48.55
2019-04-22T19:17:28.486Z,53.23
2019-04-22T19:19:49.746Z,44.03
2019-04-22T19:22:16.270Z,50.43
2019-04-22T19:24:45.929Z,46.25
2019-04-22T19:27:16.199Z,50.25
2019-04-22T19:29:55.795Z,53.23
2019-04-22T19:32:21.368Z,54.67
2019-04-22T19:34:47.813Z,48.92
2019-04-22T19:37:17.411Z,93.35
2019-04-22T19:39:52.646Z,66.00
2019-04-22T19:42:27.057Z,76.80
2019-04-22T19:44:50.771Z,73.70
2019-04-22T19:52:26.066Z,53.02
2019-04-22T19:54:46.676Z,57.80
2019-04-22T19:57:20.274Z,51.73
2019-04-22T19:59:49.879Z,44.95
2019-04-22T20:02:17.616Z,59.40
2019-04-22T20:05:05.835Z,57.90
2019-04-22T20:07:29.579Z,53.35
2019-04-22T20:10:05.435Z,63.15
2019-04-22T20:12:31.872Z,66.30
2019-04-22T20:15:00.402Z,63.30
2019-04-22T20:17:41.727Z,64.27
2019-04-22T20:20:14.378Z,69.80
2019-04-22T20:22:34.141Z,70.42
2019-04-22T20:24:55.347Z,64.82
2019-04-22T20:27:36.286Z,56.50
2019-04-22T20:30:04.748Z,61.08
2019-04-22T20:32:32.334Z,65.10
2019-04-22T20:35:07.431Z,72.20
2019-04-22T20:37:38.594Z,74.90
2019-04-22T20:40:05.418Z,68.60
2019-04-22T20:42:43.641Z,65.90
2019-04-22T20:45:13.099Z,62.45
2019-04-22T20:47:32.942Z,76.65
2019-04-22T20:50:07.450Z,66.33
2019-04-22T20:52:52.745Z,67.67
2019-04-22T20:55:03.101Z,75.67
2019-04-22T20:57:46.262Z,63.80
2019-04-22T21:00:02.228Z,67.65
2019-04-22T21:02:32.643Z,67.50
2019-04-22T21:04:57.071Z,70.45
2019-04-22T21:07:36.197Z,68.40
2019-04-22T21:10:04.631Z,64.55
2019-04-22T21:12:33.184Z,70.03
2019-04-22T21:15:12.531Z,64.55
2019-04-22T21:17:42.872Z,68.67
2019-04-22T21:20:17.335Z,75.28
2019-04-22T21:22:43.403Z,72.72
2019-04-22T21:25:05.864Z,69.65
2019-04-22T21:27:45.335Z,77.70
2019-04-22T21:30:14.433Z,65.67
2019-04-22T21:32:45.133Z,73.00
2019-04-22T21:35:22.859Z,57.15
2019-04-22T21:37:54.194Z,64.10
2019-04-22T21:40:18.145Z,65.05
2019-04-22T21:42:58.291Z,68.42
2019-04-22T21:45:15.159Z,63.58
2019-04-22T21:47:57.743Z,63.85
2019-04-22T21:50:35.636Z,63.38
2019-04-22T21:52:59.503Z,60.52
2019-04-22T21:55:25.237Z,67.45
2019-04-22T21:58:04.848Z,67.12
2019-04-22T22:00:40.854Z,66.40
2019-04-22T22:03:00.592Z,61.77
2019-04-22T22:05:22.174Z,68.45
2019-04-22T22:07:50.867Z,70.35
2019-04-22T22:10:29.698Z,69.12
2019-04-22T22:13:00.232Z,67.00
2019-04-22T22:15:31.833Z,69.65
2019-04-22T22:18:00.382Z,65.87
2019-04-22T22:20:22.783Z,70.60
2019-04-22T22:23:22.312Z,75.60
2019-04-22T22:25:27.991Z,62.55
2019-04-22T22:27:53.355Z,60.52
2019-04-22T22:33:04.066Z,68.92
2019-04-22T22:35:31.600Z,64.12
2019-04-22T22:37:58.035Z,69.35
2019-04-22T22:40:17.468Z,69.75
2019-04-22T22:42:45.612Z,62.48
2019-04-22T22:45:22.589Z,60.88
2019-04-22T22:48:09.655Z,67.47
2019-04-22T22:50:30.410Z,65.87
2019-04-22T22:53:17.073Z,62.83
2019-04-22T22:55:37.499Z,63.87
2019-04-22T22:58:06.189Z,75.32
2019-04-22T23:00:32.256Z,64.40
2019-04-22T23:03:17.037Z,73.57
2019-04-22T23:05:37.663Z,65.05
2019-04-22T23:08:09.581Z,66.20
2019-04-22T23:10:47.687Z,69.87
2019-04-22T23:13:16.268Z,67.42
2019-04-22T23:15:27.756Z,71.33
2019-04-22T23:17:45.581Z,69.15
2019-04-22T23:20:18.512Z,73.90
2019-04-22T23:23:10.230Z,75.47
2019-04-22T23:25:51.699Z,65.65
2019-04-22T23:28:12.647Z,60.60
2019-04-22T23:30:40.053Z,52.43
2019-04-22T23:33:22.980Z,59.20
2019-04-22T23:35:46.993Z,58.95
2019-04-22T23:38:21.245Z,56.40
2019-04-22T23:40:50.680Z,54.65
2019-04-22T23:43:27.297Z,56.85
2019-04-22T23:45:57.809Z,62.78
2019-04-22T23:48:20.472Z,60.88
2019-04-22T23:51:00.648Z,56.42
2019-04-22T23:53:35.228Z,56.85
2019-04-22T23:56:03.250Z,59.98
2019-04-22T23:58:50.029Z,54.83
